Data for 01/16/2018

Time Sea-Level Adjusted Pressure Absolute Pressure Temperature Relative Humidity Dew Point   
(mb) (inHg) (mb) (inHg) (C) (F) (%) (C) (F)
00:05 1028 30.36 857 25.31 -8.4 16.8 81 -11.1 12.1
00:10 1028 30.36 857 25.31 -8.4 16.9 81 -11.1 12
00:15 1028 30.36 857 25.31 -8.5 16.8 81 -11.2 11.9
00:20 1028 30.36 857 25.31 -8.6 16.6 81 -11.2 11.8
00:25 1028 30.36 857 25.31 -8.7 16.4 82 -11.3 11.7
00:30 1028 30.36 857 25.31 -8.7 16.4 82 -11.3 11.7
00:35 1028 30.36 857 25.31 -8.7 16.3 81 -11.4 11.5
00:40 1028 30.36 857 25.31 -8.8 16.2 82 -11.3 11.6
00:45 1028 30.36 857 25.31 -8.7 16.4 81 -11.4 11.5
00:50 1028 30.36 857 25.31 -8.9 16.1 81 -11.5 11.3
00:55 1028 30.36 857 25.31 -9.3 15.4 82 -11.8 10.7
01:00 1028 30.36 857 25.31 -9.5 14.9 82 -12 10.4
01:05 1028 30.36 857 25.31 -9.5 15 82 -11.9 10.5
01:10 1028 30.36 857 25.31 -9.4 15.1 83 -11.8 10.7
01:15 1028 30.36 857 25.31 -9.2 15.5 82 -11.7 11
01:20 1027 30.33 857 25.31 -8.9 16 81 -11.5 11.2
01:25 1027 30.33 857 25.31 -8.8 16.1 80 -11.7 11
01:30 1027 30.33 857 25.31 -9.3 15.4 81 -12 10.4
01:35 1027 30.33 857 25.31 -9.3 15.3 81 -12 10.3
01:40 1027 30.33 857 25.31 -9.3 15.2 80 -12.2 10.1
01:45 1027 30.33 857 25.31 -9.3 15.3 80 -12.2 10
01:50 1027 30.33 856 25.28 -9.3 15.2 79 -12.3 9.8
01:55 1027 30.33 856 25.28 -9.7 14.5 80 -12.5 9.5
02:00 1027 30.33 856 25.28 -10 14.1 82 -12.5 9.4
02:05 1027 30.33 856 25.28 -10.1 13.8 83 -12.4 9.6
02:10 1027 30.33 856 25.28 -10.2 13.6 84 -12.5 9.5
02:15 1027 30.33 856 25.28 -10.2 13.6 83 -12.6 9.4
02:20 1027 30.33 856 25.28 -10.1 13.9 81 -12.8 9
02:25 1027 30.33 856 25.28 -9.9 14.2 80 -12.7 9.1
02:30 1027 30.33 856 25.28 -9.7 14.5 80 -12.5 9.5
02:35 1027 30.33 856 25.28 -9.6 14.7 79 -12.5 9.5
02:40 1027 30.33 856 25.28 -9.5 14.9 78 -12.6 9.3
02:45 1027 30.33 856 25.28 -9.8 14.4 79 -12.7 9.1
02:50 1027 30.33 856 25.28 -9.9 14.2 79 -13 8.7
02:55 1027 30.33 856 25.28 -9.9 14.3 80 -12.7 9.2
03:00 1027 30.33 856 25.28 -9.6 14.7 80 -12.5 9.5
03:05 1027 30.33 856 25.28 -9.6 14.6 79 -12.7 9.1
03:10 1027 30.33 856 25.28 -9.8 14.3 78 -13 8.7
03:15 1027 30.33 856 25.28 -10 13.9 79 -13 8.6
03:20 1027 30.33 856 25.28 -10.4 13.4 80 -13.2 8.3
03:25 1027 30.33 856 25.28 -10.6 13 81 -13.3 8.1
03:30 1027 30.33 856 25.28 -10.6 12.9 82 -13.1 8.4
03:35 1027 30.33 856 25.28 -10.3 13.4 81 -13 8.5
03:40 1026 30.3 856 25.28 -10.3 13.6 80 -13.1 8.5
03:45 1026 30.3 856 25.28 -10.1 13.8 80 -12.9 8.8
03:50 1026 30.3 855 25.25 -10 14.1 79 -12.9 8.7
03:55 1026 30.3 855 25.25 -9.9 14.1 79 -12.9 8.8
04:00 1026 30.3 855 25.25 -9.7 14.5 79 -12.7 9.2
04:05 1026 30.3 855 25.25 -9.6 14.8 78 -12.8 9
04:10 1026 30.3 855 25.25 -9.6 14.8 77 -12.9 8.8
04:15 1026 30.3 855 25.25 -9.5 14.9 76 -13 8.7
04:20 1026 30.3 855 25.25 -9.7 14.5 78 -12.9 8.8
04:25 1026 30.3 855 25.25 -9.6 14.7 80 -12.5 9.6
04:30 1026 30.3 855 25.25 -9.5 14.9 83 -11.8 10.7
04:35 1026 30.3 855 25.25 -9.4 15.2 81 -12.1 10.2
04:40 1026 30.3 855 25.25 -9 15.9 77 -12.3 9.9
04:45 1026 30.3 855 25.25 -8.7 16.3 76 -12.2 10
04:50 1026 30.3 855 25.25 -8.7 16.4 76 -12.2 10
04:55 1026 30.3 855 25.25 -8.8 16.1 75 -12.4 9.6
05:00 1026 30.3 855 25.25 -9.2 15.5 75 -12.8 9
05:05 1026 30.3 855 25.25 -9.2 15.5 76 -12.7 9.2
05:10 1026 30.3 855 25.25 -9.1 15.6 77 -12.5 9.5
05:15 1026 30.3 855 25.25 -8.8 16.2 75 -12.5 9.5
05:20 1026 30.3 855 25.25 -8.7 16.3 74 -12.5 9.5
05:25 1026 30.3 855 25.25 -9.1 15.6 77 -12.5 9.5
05:30 1026 30.3 855 25.25 -9.3 15.3 77 -12.5 9.4
05:35 1026 30.3 855 25.25 -9.1 15.6 77 -12.4 9.7
05:40 1026 30.3 855 25.25 -8.9 16.1 76 -12.4 9.6
05:45 1026 30.3 855 25.25 -8.9 15.9 75 -12.5 9.5
05:50 1026 30.3 855 25.25 -9.1 15.6 76 -12.6 9.3
05:55 1026 30.3 855 25.25 -9.4 15.1 77 -12.7 9.1
06:00 1026 30.3 855 25.25 -9.6 14.8 78 -12.7 9.2
06:05 1026 30.3 855 25.25 -9.6 14.8 80 -12.3 9.8
06:10 1026 30.3 855 25.25 -9 15.8 78 -12.1 10.1
06:15 1026 30.3 855 25.25 -8.6 16.6 75 -12.3 9.9
06:20 1026 30.3 855 25.25 -8.6 16.4 75 -12.3 9.9
06:25 1026 30.3 855 25.25 -9.8 14.3 79 -12.8 8.9
06:30 1026 30.3 855 25.25 -10.3 13.5 84 -12.5 9.5
06:35 1026 30.3 855 25.25 -9.4 15.1 80 -12.3 9.9
06:40 1026 30.3 855 25.25 -9.7 14.5 82 -12.3 9.9
06:45 1026 30.3 855 25.25 -10 14 84 -12.3 9.9
06:50 1026 30.3 855 25.25 -9.8 14.4 84 -12.1 10.3
06:55 1026 30.3 855 25.25 -9.3 15.2 79 -12.4 9.7
07:00 1026 30.3 855 25.25 -9.3 15.2 78 -12.5 9.6
07:05 1026 30.3 855 25.25 -9.4 15.1 78 -12.6 9.4
07:10 1026 30.3 855 25.25 -10 14 82 -12.5 9.6
07:15 1026 30.3 855 25.25 -10.2 13.6 81 -12.9 8.8
07:20 1025 30.27 855 25.25 -10.3 13.4 83 -12.6 9.3
07:25 1025 30.27 855 25.25 -10.1 13.8 82 -12.5 9.4
07:30 1025 30.27 855 25.25 -10.4 13.4 84 -12.6 9.3
07:35 1025 30.27 855 25.25 -10.1 13.9 84 -12.3 9.9
07:40 1025 30.27 854 25.22 -9.8 14.3 82 -12.4 9.7
07:45 1025 30.27 854 25.22 -9.9 14.2 82 -12.4 9.8
07:50 1025 30.27 854 25.22 -10 14.1 80 -12.7 9.1
07:55 1025 30.27 854 25.22 -10.4 13.3 79 -13.4 7.9
08:00 1025 30.27 854 25.22 -10.7 12.7 79 -13.7 7.3
08:05 1025 30.27 854 25.22 -11 12.2 80 -13.9 7
08:10 1025 30.27 854 25.22 -11 12.1 80 -13.8 7.1
08:15 1025 30.27 854 25.22 -10.9 12.3 80 -13.8 7.2
08:20 1025 30.27 854 25.22 -10.8 12.5 79 -13.8 7.1
08:25 1025 30.27 854 25.22 -10.4 13.3 77 -13.6 7.5
08:30 1025 30.27 854 25.22 -9.9 14.1 76 -13.4 7.9
08:35 1025 30.27 854 25.22 -9.9 14.2 75 -13.5 7.7
08:40 1025 30.27 854 25.22 -9.6 14.7 74 -13.4 7.8
08:45 1025 30.27 854 25.22 -9.5 14.8 73 -13.5 7.7
08:50 1025 30.27 854 25.22 -9.7 14.6 73 -13.6 7.4
08:55 1025 30.27 854 25.22 -9.8 14.4 73 -13.7 7.3
09:00 1025 30.27 854 25.22 -9.7 14.5 74 -13.6 7.5
09:05 1025 30.27 854 25.22 -9.5 15 72 -13.6 7.6
09:10 1025 30.27 854 25.22 -9.3 15.3 72 -13.5 7.8
09:15 1025 30.27 854 25.22 -9 15.8 72 -13.2 8.2
09:20 1025 30.27 854 25.22 -8.5 16.8 70 -13 8.7
09:25 1025 30.27 854 25.22 -8 17.7 68 -12.8 9
09:30 1025 30.27 855 25.25 -7.6 18.4 66 -12.8 8.9
09:35 1025 30.27 855 25.25 -7.6 18.4 67 -12.6 9.4
09:40 1025 30.27 854 25.22 -7.4 18.7 67 -12.6 9.3
09:45 1025 30.27 855 25.25 -7.1 19.2 65 -12.5 9.4
09:50 1025 30.27 855 25.25 -6.6 20 63 -12.5 9.5
09:55 1025 30.27 855 25.25 -6.1 21 61 -12.5 9.4
10:00 1025 30.27 855 25.25 -6.1 21.1 62 -12.1 10.1
10:05 1025 30.27 855 25.25 -5.9 21.3 61 -12.2 10
10:10 1025 30.27 855 25.25 -5.7 21.8 60 -12.3 9.9
10:15 1025 30.27 855 25.25 -5.2 22.6 59 -12 10.3
10:20 1025 30.27 855 25.25 -5.2 22.6 59 -12.1 10.2
10:25 1025 30.27 855 25.25 -4.8 23.4 57 -12.1 10.2
10:30 1025 30.27 855 25.25 -4.3 24.3 54 -12.1 10.2
10:35 1025 30.27 855 25.25 -4.1 24.6 55 -11.8 10.7
10:40 1025 30.27 854 25.22 -3.7 25.3 52 -12.1 10.2
10:45 1025 30.27 854 25.22 -3.1 26.4 51 -12 10.4
10:50 1025 30.27 854 25.22 -3.4 25.9 52 -12 10.4
10:55 1025 30.27 854 25.22 -3.3 26.1 51 -11.9 10.5
11:00 1025 30.27 854 25.22 -2.4 27.6 49 -11.8 10.8
11:05 1025 30.27 854 25.22 -2.3 27.9 49 -11.6 11.2
11:10 1025 30.27 854 25.22 -2.8 27 52 -11.3 11.6
11:15 1025 30.27 854 25.22 -2.7 27.1 51 -11.6 11.1
11:20 1025 30.27 854 25.22 -2.3 27.8 48 -11.8 10.7
11:25 1025 30.27 854 25.22 -2.3 27.9 50 -11.4 11.5
11:30 1025 30.27 854 25.22 -2.5 27.5 49 -11.9 10.5
11:35 1025 30.27 854 25.22 -2.4 27.8 48 -11.9 10.5
11:40 1025 30.27 854 25.22 -1.8 28.8 49 -11.2 11.8
11:45 1025 30.27 854 25.22 -1.8 28.8 49 -11.2 11.9
11:50 1024 30.24 854 25.22 -1.5 29.3 49 -10.9 12.3
11:55 1024 30.24 854 25.22 -1.6 29.1 50 -10.7 12.7
12:00 1024 30.24 854 25.22 -1.6 29.1 50 -10.8 12.6
12:05 1024 30.24 853 25.19 -1.9 28.6 52 -10.6 12.9
12:10 1024 30.24 853 25.19 -1.8 28.8 51 -10.6 12.9
12:15 1024 30.24 853 25.19 -1.4 29.5 49 -10.8 12.6
12:20 1024 30.24 853 25.19 -1.9 28.6 52 -10.4 13.3
12:25 1024 30.24 853 25.19 -2.1 28.2 54 -10.1 13.8
12:30 1024 30.24 853 25.19 -2.3 27.9 55 -10.3 13.5
12:35 1024 30.24 853 25.19 -1.9 28.7 52 -10.5 13.1
12:40 1024 30.24 853 25.19 -1.4 29.5 52 -9.9 14.2
12:45 1024 30.24 853 25.19 -1.4 29.5 52 -10.1 13.8
12:50 1023 30.21 853 25.19 -0.8 30.6 49 -10.2 13.7
12:55 1023 30.21 853 25.19 -0.9 30.4 49 -10.3 13.4
13:00 1023 30.21 853 25.19 -0.8 30.5 49 -10.1 13.8
13:05 1023 30.21 852 25.16 -0.9 30.4 50 -10.1 13.8
13:10 1023 30.21 852 25.16 -0.8 30.6 50 -9.9 14.2
13:15 1023 30.21 852 25.16 -0.1 31.8 47 -10.1 13.8
13:20 1023 30.21 852 25.16 0.8 33.5 43 -10.4 13.3
13:25 1023 30.21 852 25.16 1.1 34.1 44 -9.8 14.3
13:30 1023 30.21 852 25.16 0.2 32.4 45 -10.3 13.4
13:35 1023 30.21 853 25.19 0.5 32.9 46 -9.9 14.1
13:40 1023 30.21 852 25.16 -0.8 30.6 51 -9.6 14.8
13:45 1023 30.21 853 25.19 -1.6 29 57 -9.2 15.5
13:50 1023 30.21 853 25.19 -1.3 29.6 51 -10.2 13.6
13:55 1023 30.21 853 25.19 -0.4 31.2 49 -9.8 14.3
14:00 1024 30.24 853 25.19 -0.6 31 48 -10.2 13.6
14:05 1024 30.24 853 25.19 -0.3 31.4 48 -10.1 13.9
14:10 1024 30.24 853 25.19 -0.6 31 50 -9.7 14.6
14:15 1024 30.24 853 25.19 -0.8 30.5 50 -10.1 13.9
14:20 1024 30.24 853 25.19 -0.7 30.7 50 -9.9 14.2
14:25 1024 30.24 853 25.19 -0.9 30.5 51 -9.8 14.3
14:30 1023 30.21 853 25.19 -0.8 30.6 50 -10.1 13.9
14:35 1023 30.21 853 25.19 -0.6 30.9 49 -10.1 13.8
14:40 1023 30.21 853 25.19 -0.7 30.7 51 -9.6 14.7
14:45 1023 30.21 853 25.19 -0.7 30.8 49 -10 14
14:50 1023 30.21 853 25.19 -0.6 30.8 49 -10.1 13.7
14:55 1023 30.21 853 25.19 -1.2 29.8 51 -10.1 13.7
15:00 1023 30.21 853 25.19 -1.1 30.1 49 -10.6 13
15:05 1024 30.24 853 25.19 -0.6 30.9 52 -9.2 15.4
15:10 1024 30.24 853 25.19 -1.2 29.8 53 -9.6 14.8
15:15 1024 30.24 853 25.19 -1.2 29.9 53 -9.7 14.6
15:20 1024 30.24 853 25.19 -0.9 30.4 52 -9.6 14.7
15:25 1024 30.24 853 25.19 0 32.1 49 -9.4 15
15:30 1024 30.24 853 25.19 0.4 32.7 48 -9.5 15
15:35 1024 30.24 853 25.19 0.6 33 48 -9.2 15.4
15:40 1024 30.24 853 25.19 -0.2 31.6 51 -9.2 15.4
15:45 1024 30.24 853 25.19 -0.7 30.7 51 -9.7 14.5
15:50 1024 30.24 853 25.19 -0.8 30.5 50 -10 14.1
15:55 1024 30.24 853 25.19 -1 30.2 51 -9.9 14.2
16:00 1024 30.24 853 25.19 -1.4 29.4 53 -9.9 14.1
16:05 1024 30.24 853 25.19 -1.8 28.7 54 -9.9 14.1
16:10 1024 30.24 853 25.19 -2.2 28 56 -9.8 14.3
16:15 1024 30.24 853 25.19 -2.1 28.3 55 -9.9 14.1
16:20 1024 30.24 853 25.19 -1.8 28.7 54 -9.9 14.2
16:25 1024 30.24 853 25.19 -1.6 29.1 54 -9.8 14.3
16:30 1024 30.24 853 25.19 -1.6 29 54 -9.8 14.3
16:35 1024 30.24 853 25.19 -1.3 29.7 52 -9.8 14.3
16:40 1024 30.24 853 25.19 -0.9 30.3 51 -9.8 14.4
16:45 1024 30.24 853 25.19 -1 30.3 51 -9.8 14.3
16:50 1024 30.24 853 25.19 -1.1 30 53 -9.6 14.7
16:55 1024 30.24 853 25.19 -1.2 29.9 53 -9.6 14.8
17:00 1024 30.24 853 25.19 -1.1 29.9 53 -9.5 14.9
17:05 1024 30.24 853 25.19 -1.7 28.9 56 -9.4 15
17:10 1024 30.24 853 25.19 -2.2 28 57 -9.6 14.7
17:15 1024 30.24 853 25.19 -2.3 27.9 56 -9.8 14.4
17:20 1024 30.24 854 25.22 -2.4 27.7 56 -9.9 14.1
17:25 1024 30.24 854 25.22 -2.8 27 57 -10.1 13.8
17:30 1024 30.24 854 25.22 -3.1 26.4 57 -10.4 13.2
17:35 1024 30.24 854 25.22 -3 26.6 58 -10 13.9
17:40 1024 30.24 854 25.22 -2.9 26.8 57 -10.2 13.6
17:45 1024 30.24 854 25.22 -3.3 26.1 58 -10.3 13.4
17:50 1025 30.27 854 25.22 -3.6 25.5 59 -10.6 13
17:55 1025 30.27 854 25.22 -3.8 25.2 56 -11.4 11.5
18:00 1025 30.27 854 25.22 -3.9 25.1 59 -10.7 12.7
18:05 1025 30.27 854 25.22 -4.2 24.5 60 -10.8 12.6
18:10 1025 30.27 854 25.22 -4.5 23.9 60 -11.1 12
18:15 1025 30.27 854 25.22 -4.5 23.9 60 -11.2 11.9
18:20 1025 30.27 854 25.22 -4.3 24.3 59 -11.1 12
18:25 1025 30.27 854 25.22 -4.3 24.2 60 -11 12.2
18:30 1025 30.27 854 25.22 -4.4 24.1 59 -11.1 11.9
18:35 1025 30.27 854 25.22 -4.4 24.1 59 -11.2 11.8
18:40 1025 30.27 854 25.22 -4.1 24.6 53 -12.3 9.9
18:45 1025 30.27 854 25.22 -4.1 24.7 56 -11.6 11.2
18:50 1025 30.27 854 25.22 -4.5 23.9 60 -11.2 11.9
18:55 1025 30.27 854 25.22 -4.6 23.7 61 -11 12.3
19:00 1025 30.27 854 25.22 -4.4 24.1 59 -11.3 11.6
19:05 1024 30.24 854 25.22 -4.6 23.8 59 -11.3 11.6
19:10 1024 30.24 854 25.22 -4.7 23.5 60 -11.4 11.4
19:15 1024 30.24 854 25.22 -4.6 23.8 60 -11.2 11.9
19:20 1024 30.24 854 25.22 -4.5 23.9 60 -11.2 11.8
19:25 1024 30.24 854 25.22 -4.6 23.8 60 -11.3 11.7
19:30 1024 30.24 854 25.22 -4.5 23.9 59 -11.3 11.7
19:35 1024 30.24 854 25.22 -4.3 24.3 58 -11.4 11.5
19:40 1024 30.24 854 25.22 -4.1 24.6 57 -11.4 11.4
19:45 1024 30.24 854 25.22 -4 24.7 57 -11.4 11.5
19:50 1024 30.24 854 25.22 -4 24.8 56 -11.5 11.4
19:55 1024 30.24 853 25.19 -3.9 25 56 -11.4 11.6
20:00 1024 30.24 853 25.19 -3.9 25 57 -11.3 11.7
20:05 1024 30.24 853 25.19 -3.9 25 58 -11.1 12.1
20:10 1024 30.24 853 25.19 -4.2 24.4 59 -11 12.1
20:15 1024 30.24 853 25.19 -4.3 24.3 59 -11.2 11.8
20:20 1024 30.24 854 25.22 -4.1 24.6 58 -11.1 12
20:25 1024 30.24 854 25.22 -4.2 24.5 58 -11.3 11.6
20:30 1024 30.24 854 25.22 -3.7 25.3 56 -11.3 11.7
20:35 1024 30.24 854 25.22 -3.8 25.1 59 -10.8 12.6
20:40 1025 30.27 854 25.22 -4.2 24.5 60 -10.9 12.4
20:45 1025 30.27 854 25.22 -4.2 24.4 60 -10.8 12.5
20:50 1025 30.27 854 25.22 -4.8 23.4 62 -10.9 12.4
20:55 1025 30.27 854 25.22 -4.8 23.5 62 -11 12.2
21:00 1025 30.27 854 25.22 -5.1 22.8 63 -11.1 12
21:05 1025 30.27 854 25.22 -5.1 22.8 67 -10.4 13.3
21:10 1025 30.27 854 25.22 -5 23.1 65 -10.6 12.8
21:15 1025 30.27 854 25.22 -5 23.1 66 -10.4 13.3
21:20 1025 30.27 854 25.22 -5 23.1 65 -10.6 13
21:25 1025 30.27 854 25.22 -5.2 22.6 65 -10.7 12.7
21:30 1025 30.27 854 25.22 -5.5 22.2 67 -10.7 12.7
21:35 1025 30.27 854 25.22 -5.6 21.9 66 -11 12.3
21:40 1025 30.27 854 25.22 -6.5 20.3 70 -11.2 11.9
21:45 1025 30.27 855 25.25 -6.7 19.9 69 -11.5 11.4
21:50 1025 30.27 854 25.22 -6.7 20 69 -11.5 11.3
21:55 1025 30.27 854 25.22 -6.7 19.9 68 -11.7 11
22:00 1025 30.27 855 25.25 -6.4 20.4 68 -11.4 11.4
22:05 1025 30.27 855 25.25 -5.9 21.4 66 -11.3 11.6
22:10 1025 30.27 855 25.25 -5.9 21.4 67 -11.1 12
22:15 1025 30.27 855 25.25 -6.3 20.6 69 -11.2 11.9
22:20 1026 30.3 855 25.25 -6.4 20.5 68 -11.3 11.7
22:25 1026 30.3 855 25.25 -6.6 20.1 69 -11.4 11.5
22:30 1026 30.3 855 25.25 -6.7 20 69 -11.4 11.4
22:35 1026 30.3 855 25.25 -6.6 20.2 69 -11.3 11.6
22:40 1026 30.3 855 25.25 -6.7 20 70 -11.3 11.6
22:45 1026 30.3 855 25.25 -6.7 19.9 70 -11.2 11.8
22:50 1026 30.3 855 25.25 -6.3 20.7 69 -11 12.2
22:55 1026 30.3 855 25.25 -5.7 21.8 71 -10.1 13.9
23:00 1026 30.3 855 25.25 -5.7 21.8 72 -10 14.1
23:05 1026 30.3 855 25.25 -5.7 21.7 72 -10 14
23:10 1026 30.3 855 25.25 -5.8 21.5 73 -9.9 14.1
23:15 1026 30.3 855 25.25 -5.9 21.4 73 -10 14.1
23:20 1026 30.3 855 25.25 -5 22.9 70 -9.6 14.6
23:25 1026 30.3 855 25.25 -4.3 24.2 69 -9.2 15.4
23:30 1025 30.27 855 25.25 -4.2 24.4 70 -8.9 15.9
23:35 1025 30.27 855 25.25 -4 24.9 71 -8.4 16.8
23:40 1026 30.3 855 25.25 -3.6 25.5 67 -8.9 16
23:45 1026 30.3 855 25.25 -3.7 25.4 66 -9.2 15.5
23:50 1026 30.3 855 25.25 -3.9 25.1 67 -9.2 15.4
23:55 1026 30.3 855 25.25 -3.3 26.1 64 -9.2 15.4
24:00 1026 30.3 855 25.25 -3.2 26.3 65 -8.9 16